sensor_id;sensor_type;location;lat;lon;timestamp;pressure;altitude;pressure_sealevel;temperature;humidity
19210;BME280;9738;51.654;14.238;2023-02-16T00:01:22;101352.69;;;1.27;100.00
19210;BME280;9738;51.654;14.238;2023-02-16T00:03:52;101352.59;;;1.30;100.00
19210;BME280;9738;51.654;14.238;2023-02-16T00:06:22;101359.69;;;1.28;100.00
19210;BME280;9738;51.654;14.238;2023-02-16T00:08:50;101353.78;;;1.23;100.00
19210;BME280;9738;51.654;14.238;2023-02-16T00:11:22;101351.94;;;1.25;100.00
19210;BME280;9738;51.654;14.238;2023-02-16T00:14:09;101342.47;;;1.21;100.00
19210;BME280;9738;51.654;14.238;2023-02-16T00:16:36;101344.19;;;1.22;100.00
19210;BME280;9738;51.654;14.238;2023-02-16T00:19:20;101337.34;;;1.18;100.00
19210;BME280;9738;51.654;14.238;2023-02-16T00:21:49;101343.53;;;1.17;100.00
19210;BME280;9738;51.654;14.238;2023-02-16T00:24:15;101326.03;;;1.16;100.00
19210;BME280;9738;51.654;14.238;2023-02-16T00:26:42;101329.66;;;1.13;100.00
19210;BME280;9738;51.654;14.238;2023-02-16T00:29:20;101336.78;;;1.11;100.00
19210;BME280;9738;51.654;14.238;2023-02-16T00:31:47;101333.97;;;1.14;100.00
19210;BME280;9738;51.654;14.238;2023-02-16T00:34:24;101339.19;;;1.16;100.00
19210;BME280;9738;51.654;14.238;2023-02-16T00:36:50;101336.50;;;1.17;100.00
19210;BME280;9738;51.654;14.238;2023-02-16T00:39:16;101332.94;;;1.18;100.00
19210;BME280;9738;51.654;14.238;2023-02-16T00:41:43;101332.09;;;1.18;100.00
19210;BME280;9738;51.654;14.238;2023-02-16T00:44:17;101328.25;;;1.25;100.00
19210;BME280;9738;51.654;14.238;2023-02-16T00:46:46;101327.97;;;1.31;100.00
19210;BME280;9738;51.654;14.238;2023-02-16T00:49:16;101326.19;;;1.31;100.00
19210;BME280;9738;51.654;14.238;2023-02-16T00:51:42;101322.78;;;1.29;100.00
19210;BME280;9738;51.654;14.238;2023-02-16T00:54:09;101322.78;;;1.29;100.00
19210;BME280;9738;51.654;14.238;2023-02-16T00:56:35;101326.25;;;1.30;100.00
19210;BME280;9738;51.654;14.238;2023-02-16T00:59:01;101331.53;;;1.30;100.00
19210;BME280;9738;51.654;14.238;2023-02-16T01:01:31;101334.16;;;1.30;100.00
19210;BME280;9738;51.654;14.238;2023-02-16T01:04:01;101339.78;;;1.22;100.00
19210;BME280;9738;51.654;14.238;2023-02-16T01:06:29;101329.28;;;1.21;100.00
19210;BME280;9738;51.654;14.238;2023-02-16T01:09:17;101324.97;;;1.20;100.00
19210;BME280;9738;51.654;14.238;2023-02-16T01:12:03;101322.69;;;1.12;100.00
19210;BME280;9738;51.654;14.238;2023-02-16T01:14:31;101321.34;;;1.03;100.00
19210;BME280;9738;51.654;14.238;2023-02-16T01:16:57;101320.69;;;0.98;100.00
19210;BME280;9738;51.654;14.238;2023-02-16T01:19:24;101318.31;;;0.92;100.00
19210;BME280;9738;51.654;14.238;2023-02-16T01:21:50;101319.25;;;0.91;100.00
19210;BME280;9738;51.654;14.238;2023-02-16T01:24:16;101327.91;;;0.93;100.00
19210;BME280;9738;51.654;14.238;2023-02-16T01:26:45;101326.38;;;0.89;100.00
19210;BME280;9738;51.654;14.238;2023-02-16T01:29:15;101327.47;;;0.84;100.00
19210;BME280;9738;51.654;14.238;2023-02-16T01:31:41;101328.44;;;0.81;100.00
19210;BME280;9738;51.654;14.238;2023-02-16T01:34:07;101342.09;;;0.70;100.00
19210;BME280;9738;51.654;14.238;2023-02-16T01:36:39;101337.09;;;0.64;100.00
19210;BME280;9738;51.654;14.238;2023-02-16T01:39:06;101339.91;;;0.60;100.00
19210;BME280;9738;51.654;14.238;2023-02-16T01:42:02;101334.06;;;0.53;100.00
19210;BME280;9738;51.654;14.238;2023-02-16T01:45:03;101330.84;;;0.46;100.00
19210;BME280;9738;51.654;14.238;2023-02-16T01:47:43;101331.09;;;0.40;100.00
19210;BME280;9738;51.654;14.238;2023-02-16T01:50:24;101328.84;;;0.31;100.00
19210;BME280;9738;51.654;14.238;2023-02-16T01:53:00;101325.56;;;0.26;100.00
19210;BME280;9738;51.654;14.238;2023-02-16T01:55:37;101320.19;;;0.29;100.00
19210;BME280;9738;51.654;14.238;2023-02-16T01:58:11;101319.91;;;0.35;100.00
19210;BME280;9738;51.654;14.238;2023-02-16T02:03:17;101318.66;;;0.44;100.00
19210;BME280;9738;51.654;14.238;2023-02-16T02:06:03;101297.28;;;0.33;100.00
19210;BME280;9738;51.654;14.238;2023-02-16T02:08:37;101299.03;;;0.32;100.00
19210;BME280;9738;51.654;14.238;2023-02-16T02:11:35;101298.97;;;0.34;100.00
19210;BME280;9738;51.654;14.238;2023-02-16T02:16:33;101294.75;;;0.30;100.00
19210;BME280;9738;51.654;14.238;2023-02-16T02:18:59;101296.72;;;0.24;100.00
19210;BME280;9738;51.654;14.238;2023-02-16T02:27:26;101293.78;;;0.32;100.00
19210;BME280;9738;51.654;14.238;2023-02-16T02:32:53;101295.50;;;0.53;100.00
19210;BME280;9738;51.654;14.238;2023-02-16T02:38:12;101296.47;;;0.71;100.00
19210;BME280;9738;51.654;14.238;2023-02-16T02:40:57;101286.59;;;0.76;100.00
19210;BME280;9738;51.654;14.238;2023-02-16T02:43:37;101281.03;;;0.82;100.00
19210;BME280;9738;51.654;14.238;2023-02-16T02:48:37;101287.19;;;0.83;100.00
19210;BME280;9738;51.654;14.238;2023-02-16T02:54:21;101295.00;;;0.85;100.00
19210;BME280;9738;51.654;14.238;2023-02-16T02:57:12;101296.81;;;0.82;100.00
19210;BME280;9738;51.654;14.238;2023-02-16T03:00:09;101300.34;;;0.83;100.00
19210;BME280;9738;51.654;14.238;2023-02-16T03:02:59;101293.22;;;0.85;100.00
19210;BME280;9738;51.654;14.238;2023-02-16T03:05:30;101290.09;;;0.77;100.00
19210;BME280;9738;51.654;14.238;2023-02-16T03:08:04;101290.22;;;0.74;100.00
19210;BME280;9738;51.654;14.238;2023-02-16T03:10:43;101291.06;;;0.74;100.00
19210;BME280;9738;51.654;14.238;2023-02-16T03:13:35;101293.75;;;0.73;100.00
19210;BME280;9738;51.654;14.238;2023-02-16T03:16:10;101291.25;;;0.70;100.00
19210;BME280;9738;51.654;14.238;2023-02-16T03:18:37;101291.25;;;0.70;100.00
19210;BME280;9738;51.654;14.238;2023-02-16T03:21:26;101292.06;;;0.72;100.00
19210;BME280;9738;51.654;14.238;2023-02-16T03:24:15;101290.22;;;0.74;100.00
19210;BME280;9738;51.654;14.238;2023-02-16T03:27:03;101287.78;;;0.69;100.00
19210;BME280;9738;51.654;14.238;2023-02-16T03:29:48;101281.53;;;0.72;100.00
19210;BME280;9738;51.654;14.238;2023-02-16T03:32:16;101287.00;;;0.67;100.00
19210;BME280;9738;51.654;14.238;2023-02-16T03:34:42;101288.78;;;0.67;100.00
19210;BME280;9738;51.654;14.238;2023-02-16T03:37:08;101282.59;;;0.68;100.00
19210;BME280;9738;51.654;14.238;2023-02-16T03:39:35;101293.19;;;0.66;100.00
19210;BME280;9738;51.654;14.238;2023-02-16T03:42:21;101293.97;;;0.68;100.00
19210;BME280;9738;51.654;14.238;2023-02-16T03:44:47;101292.91;;;0.72;100.00
19210;BME280;9738;51.654;14.238;2023-02-16T03:47:13;101286.81;;;0.72;100.00
19210;BME280;9738;51.654;14.238;2023-02-16T03:49:39;101299.03;;;0.73;100.00
19210;BME280;9738;51.654;14.238;2023-02-16T03:52:05;101288.34;;;0.76;100.00
19210;BME280;9738;51.654;14.238;2023-02-16T03:54:31;101284.94;;;0.74;100.00
19210;BME280;9738;51.654;14.238;2023-02-16T03:56:57;101289.25;;;0.76;100.00
19210;BME280;9738;51.654;14.238;2023-02-16T03:59:23;101289.16;;;0.78;100.00
19210;BME280;9738;51.654;14.238;2023-02-16T04:01:49;101298.59;;;0.82;100.00
19210;BME280;9738;51.654;14.238;2023-02-16T04:04:15;101288.81;;;0.86;100.00
19210;BME280;9738;51.654;14.238;2023-02-16T04:06:41;101288.66;;;0.89;100.00
19210;BME280;9738;51.654;14.238;2023-02-16T04:09:07;101289.53;;;0.89;100.00
19210;BME280;9738;51.654;14.238;2023-02-16T04:11:32;101289.47;;;0.91;100.00
19210;BME280;9738;51.654;14.238;2023-02-16T04:14:17;101287.50;;;0.96;100.00
19210;BME280;9738;51.654;14.238;2023-02-16T04:16:43;101287.25;;;1.00;100.00
19210;BME280;9738;51.654;14.238;2023-02-16T04:19:08;101278.03;;;0.92;100.00
19210;BME280;9738;51.654;14.238;2023-02-16T04:21:36;101275.25;;;0.95;100.00
19210;BME280;9738;51.654;14.238;2023-02-16T04:24:02;101267.50;;;0.92;100.00
19210;BME280;9738;51.654;14.238;2023-02-16T04:26:31;101268.50;;;0.89;100.00
19210;BME280;9738;51.654;14.238;2023-02-16T04:28:58;101267.50;;;0.92;100.00
19210;BME280;9738;51.654;14.238;2023-02-16T04:31:23;101271.75;;;0.94;100.00
19210;BME280;9738;51.654;14.238;2023-02-16T04:33:49;101274.34;;;0.96;100.00
19210;BME280;9738;51.654;14.238;2023-02-16T04:36:15;101277.75;;;0.98;100.00
19210;BME280;9738;51.654;14.238;2023-02-16T04:38:41;101281.03;;;1.03;100.00
19210;BME280;9738;51.654;14.238;2023-02-16T04:41:07;101276.47;;;1.06;100.00
19210;BME280;9738;51.654;14.238;2023-02-16T04:43:33;101277.38;;;1.05;100.00
19210;BME280;9738;51.654;14.238;2023-02-16T04:45:59;101280.19;;;1.02;100.00
19210;BME280;9738;51.654;14.238;2023-02-16T04:48:25;101283.56;;;1.04;100.00
19210;BME280;9738;51.654;14.238;2023-02-16T04:50:51;101281.72;;;1.06;100.00
19210;BME280;9738;51.654;14.238;2023-02-16T04:53:17;101279.91;;;1.08;100.00
19210;BME280;9738;51.654;14.238;2023-02-16T04:55:47;101281.81;;;1.05;100.00
19210;BME280;9738;51.654;14.238;2023-02-16T04:58:14;101282.66;;;1.05;100.00
19210;BME280;9738;51.654;14.238;2023-02-16T05:00:40;101290.41;;;1.08;100.00
19210;BME280;9738;51.654;14.238;2023-02-16T05:03:06;101288.84;;;1.04;100.00
19210;BME280;9738;51.654;14.238;2023-02-16T05:05:32;101286.06;;;1.07;100.00
19210;BME280;9738;51.654;14.238;2023-02-16T05:08:01;101287.78;;;1.08;100.00
19210;BME280;9738;51.654;14.238;2023-02-16T05:10:27;101282.44;;;1.10;100.00
19210;BME280;9738;51.654;14.238;2023-02-16T05:12:53;101286.97;;;1.06;100.00
19210;BME280;9738;51.654;14.238;2023-02-16T05:15:38;101286.75;;;0.92;100.00
19210;BME280;9738;51.654;14.238;2023-02-16T05:18:04;101290.72;;;0.82;100.00
19210;BME280;9738;51.654;14.238;2023-02-16T05:20:30;101283.25;;;0.73;100.00
19210;BME280;9738;51.654;14.238;2023-02-16T05:23:15;101284.28;;;0.69;100.00
19210;BME280;9738;51.654;14.238;2023-02-16T05:25:41;101276.81;;;0.60;100.00
19210;BME280;9738;51.654;14.238;2023-02-16T05:28:07;101280.75;;;0.49;100.00
19210;BME280;9738;51.654;14.238;2023-02-16T05:30:33;101276.63;;;0.44;100.00
19210;BME280;9738;51.654;14.238;2023-02-16T05:32:59;101285.69;;;0.37;100.00
19210;BME280;9738;51.654;14.238;2023-02-16T05:35:25;101285.09;;;0.30;100.00
19210;BME280;9738;51.654;14.238;2023-02-16T05:37:51;101281.75;;;0.26;100.00
19210;BME280;9738;51.654;14.238;2023-02-16T05:40:17;101274.59;;;0.30;100.00
19210;BME280;9738;51.654;14.238;2023-02-16T05:42:42;101275.25;;;0.35;100.00
19210;BME280;9738;51.654;14.238;2023-02-16T05:45:09;101273.38;;;0.39;100.00
19210;BME280;9738;51.654;14.238;2023-02-16T05:47:34;101276.63;;;0.44;100.00
19210;BME280;9738;51.654;14.238;2023-02-16T05:50:00;101266.69;;;0.50;100.00
19210;BME280;9738;51.654;14.238;2023-02-16T05:52:27;101266.44;;;0.57;100.00
19210;BME280;9738;51.654;14.238;2023-02-16T05:54:53;101274.91;;;0.63;100.00
19210;BME280;9738;51.654;14.238;2023-02-16T05:57:18;101276.41;;;0.69;100.00
19210;BME280;9738;51.654;14.238;2023-02-16T05:59:45;101271.03;;;0.72;100.00
19210;BME280;9738;51.654;14.238;2023-02-16T06:02:10;101283.91;;;0.78;100.00
19210;BME280;9738;51.654;14.238;2023-02-16T06:04:36;101288.88;;;0.84;100.00
19210;BME280;9738;51.654;14.238;2023-02-16T06:07:02;101290.31;;;0.91;100.00
19210;BME280;9738;51.654;14.238;2023-02-16T06:09:28;101290.03;;;0.97;100.00
19210;BME280;9738;51.654;14.238;2023-02-16T06:11:55;101287.34;;;0.99;100.00
19210;BME280;9738;51.654;14.238;2023-02-16T06:14:22;101284.59;;;1.02;100.00
19210;BME280;9738;51.654;14.238;2023-02-16T06:16:49;101293.59;;;0.96;100.00
19210;BME280;9738;51.654;14.238;2023-02-16T06:19:16;101290.31;;;0.91;100.00
19210;BME280;9738;51.654;14.238;2023-02-16T06:21:43;101290.50;;;0.87;100.00
19210;BME280;9738;51.654;14.238;2023-02-16T06:24:11;101294.81;;;0.89;100.00
19210;BME280;9738;51.654;14.238;2023-02-16T06:26:37;101287.97;;;0.85;100.00
19210;BME280;9738;51.654;14.238;2023-02-16T06:29:04;101291.44;;;0.86;100.00
19210;BME280;9738;51.654;14.238;2023-02-16T06:31:29;101287.81;;;0.88;100.00
19210;BME280;9738;51.654;14.238;2023-02-16T06:33:55;101278.09;;;0.90;100.00
19210;BME280;9738;51.654;14.238;2023-02-16T06:36:23;101284.06;;;0.94;100.00
19210;BME280;9738;51.654;14.238;2023-02-16T06:38:48;101287.69;;;0.91;100.00
19210;BME280;9738;51.654;14.238;2023-02-16T06:41:15;101278.72;;;0.95;100.00
19210;BME280;9738;51.654;14.238;2023-02-16T06:43:59;101276.91;;;0.97;100.00
19210;BME280;9738;51.654;14.238;2023-02-16T06:46:25;101272.28;;;1.02;100.00
19210;BME280;9738;51.654;14.238;2023-02-16T06:48:51;101278.88;;;1.11;100.00
19210;BME280;9738;51.654;14.238;2023-02-16T06:51:18;101282.09;;;1.18;100.00
19210;BME280;9738;51.654;14.238;2023-02-16T06:53:45;101290.56;;;1.24;100.00
19210;BME280;9738;51.654;14.238;2023-02-16T06:56:10;101288.50;;;1.31;100.00
19210;BME280;9738;51.654;14.238;2023-02-16T06:58:37;101284.66;;;1.38;100.00
19210;BME280;9738;51.654;14.238;2023-02-16T07:01:02;101272.03;;;1.45;100.00
19210;BME280;9738;51.654;14.238;2023-02-16T07:03:28;101279.72;;;1.49;100.00
19210;BME280;9738;51.654;14.238;2023-02-16T07:05:54;101290.09;;;1.52;100.00
19210;BME280;9738;51.654;14.238;2023-02-16T07:08:20;101292.59;;;1.55;100.00
19210;BME280;9738;51.654;14.238;2023-02-16T07:10:46;101290.63;;;1.60;100.00
19210;BME280;9738;51.654;14.238;2023-02-16T07:13:13;101286.13;;;1.62;100.00
19210;BME280;9738;51.654;14.238;2023-02-16T07:15:38;101290.94;;;1.72;100.00
19210;BME280;9738;51.654;14.238;2023-02-16T07:18:04;101287.09;;;1.79;100.00
19210;BME280;9738;51.654;14.238;2023-02-16T07:20:31;101287.56;;;1.87;100.00
19210;BME280;9738;51.654;14.238;2023-02-16T07:22:56;101288.88;;;1.96;100.00
19210;BME280;9738;51.654;14.238;2023-02-16T07:25:22;101289.22;;;2.07;100.00
19210;BME280;9738;51.654;14.238;2023-02-16T07:27:50;101289.63;;;2.16;100.00
19210;BME280;9738;51.654;14.238;2023-02-16T07:30:16;101283.72;;;2.29;100.00
19210;BME280;9738;51.654;14.238;2023-02-16T07:32:42;101286.56;;;2.41;100.00
19210;BME280;9738;51.654;14.238;2023-02-16T07:35:08;101282.31;;;2.56;100.00
19210;BME280;9738;51.654;14.238;2023-02-16T07:37:34;101285.28;;;2.83;100.00
19210;BME280;9738;51.654;14.238;2023-02-16T07:40:00;101278.28;;;3.15;100.00
19210;BME280;9738;51.654;14.238;2023-02-16T07:42:30;101292.03;;;3.38;100.00
19210;BME280;9738;51.654;14.238;2023-02-16T07:44:57;101293.47;;;3.43;100.00
19210;BME280;9738;51.654;14.238;2023-02-16T07:47:23;101296.81;;;3.31;100.00
19210;BME280;9738;51.654;14.238;2023-02-16T07:49:50;101294.69;;;3.38;100.00
19210;BME280;9738;51.654;14.238;2023-02-16T07:52:16;101298.94;;;3.40;100.00
19210;BME280;9738;51.654;14.238;2023-02-16T07:54:41;101300.81;;;3.38;100.00
19210;BME280;9738;51.654;14.238;2023-02-16T07:57:08;101300.13;;;3.35;100.00
19210;BME280;9738;51.654;14.238;2023-02-16T07:59:34;101297.22;;;3.39;100.00
19210;BME280;9738;51.654;14.238;2023-02-16T08:02:00;101299.13;;;3.37;100.00
19210;BME280;9738;51.654;14.238;2023-02-16T08:04:26;101305.81;;;3.43;100.00
19210;BME280;9738;51.654;14.238;2023-02-16T08:06:52;101304.19;;;3.56;100.00
19210;BME280;9738;51.654;14.238;2023-02-16T08:09:18;101303.69;;;3.65;100.00
19210;BME280;9738;51.654;14.238;2023-02-16T08:11:44;101304.28;;;3.86;100.00
19210;BME280;9738;51.654;14.238;2023-02-16T08:14:10;101300.09;;;3.98;100.00
19210;BME280;9738;51.654;14.238;2023-02-16T08:16:35;101289.75;;;4.09;100.00
19210;BME280;9738;51.654;14.238;2023-02-16T08:19:02;101299.66;;;4.36;100.00
19210;BME280;9738;51.654;14.238;2023-02-16T08:21:32;101298.25;;;4.44;100.00
19210;BME280;9738;51.654;14.238;2023-02-16T08:24:01;101291.22;;;4.59;100.00
19210;BME280;9738;51.654;14.238;2023-02-16T08:26:35;101296.16;;;4.79;99.61
19210;BME280;9738;51.654;14.238;2023-02-16T08:29:02;101295.03;;;4.98;97.65
19210;BME280;9738;51.654;14.238;2023-02-16T08:31:30;101287.53;;;5.19;96.52
19210;BME280;9738;51.654;14.238;2023-02-16T08:33:58;101288.38;;;5.19;94.73
19210;BME280;9738;51.654;14.238;2023-02-16T08:36:33;101292.16;;;5.29;94.23
19210;BME280;9738;51.654;14.238;2023-02-16T08:39:02;101287.03;;;5.55;94.34
19210;BME280;9738;51.654;14.238;2023-02-16T08:41:34;101292.66;;;5.90;92.60
19210;BME280;9738;51.654;14.238;2023-02-16T08:44:01;101296.44;;;6.27;90.71
19210;BME280;9738;51.654;14.238;2023-02-16T08:46:28;101296.75;;;6.35;86.20
19210;BME280;9738;51.654;14.238;2023-02-16T08:48:55;101296.41;;;6.14;86.75
19210;BME280;9738;51.654;14.238;2023-02-16T08:51:27;101286.69;;;6.01;86.68
19210;BME280;9738;51.654;14.238;2023-02-16T08:53:53;101287.78;;;5.98;88.90
19210;BME280;9738;51.654;14.238;2023-02-16T08:56:20;101293.84;;;6.13;88.23
19210;BME280;9738;51.654;14.238;2023-02-16T08:58:46;101282.63;;;6.22;86.45
19210;BME280;9738;51.654;14.238;2023-02-16T09:01:12;101281.63;;;6.63;86.02
19210;BME280;9738;51.654;14.238;2023-02-16T09:03:41;101278.97;;;6.75;82.83
19210;BME280;9738;51.654;14.238;2023-02-16T09:06:09;101280.88;;;6.73;82.90
19210;BME280;9738;51.654;14.238;2023-02-16T09:08:38;101281.41;;;6.91;83.09
19210;BME280;9738;51.654;14.238;2023-02-16T09:11:06;101279.69;;;7.03;78.42
19210;BME280;9738;51.654;14.238;2023-02-16T09:13:34;101280.78;;;7.00;79.99
19210;BME280;9738;51.654;14.238;2023-02-16T09:16:02;101279.06;;;6.99;79.01
19210;BME280;9738;51.654;14.238;2023-02-16T09:18:28;101284.59;;;6.71;80.78
19210;BME280;9738;51.654;14.238;2023-02-16T09:20:54;101290.63;;;6.73;81.72
19210;BME280;9738;51.654;14.238;2023-02-16T09:23:21;101283.75;;;6.70;82.57
19210;BME280;9738;51.654;14.238;2023-02-16T09:25:47;101281.28;;;6.80;83.52
19210;BME280;9738;51.654;14.238;2023-02-16T09:28:13;101281.94;;;6.96;83.11
19210;BME280;9738;51.654;14.238;2023-02-16T09:30:40;101282.13;;;6.93;82.42
19210;BME280;9738;51.654;14.238;2023-02-16T09:33:06;101285.13;;;7.01;81.99
19210;BME280;9738;51.654;14.238;2023-02-16T09:35:32;101286.41;;;7.09;82.16
19210;BME280;9738;51.654;14.238;2023-02-16T09:37:58;101283.31;;;7.02;81.90
19210;BME280;9738;51.654;14.238;2023-02-16T09:40:24;101287.44;;;6.93;82.79
19210;BME280;9738;51.654;14.238;2023-02-16T09:45:55;101291.16;;;7.03;83.45
19210;BME280;9738;51.654;14.238;2023-02-16T09:48:36;101291.41;;;7.00;81.07
19210;BME280;9738;51.654;14.238;2023-02-16T09:51:04;101293.72;;;6.92;82.93
19210;BME280;9738;51.654;14.238;2023-02-16T09:53:38;101294.91;;;6.88;82.68
19210;BME280;9738;51.654;14.238;2023-02-16T09:59:03;101293.22;;;6.87;84.83
19210;BME280;9738;51.654;14.238;2023-02-16T10:01:46;101293.28;;;7.11;83.83
19210;BME280;9738;51.654;14.238;2023-02-16T10:04:31;101285.19;;;7.38;80.08
19210;BME280;9738;51.654;14.238;2023-02-16T10:07:31;101285.78;;;7.78;79.89
19210;BME280;9738;51.654;14.238;2023-02-16T10:10:05;101281.97;;;8.18;76.33
19210;BME280;9738;51.654;14.238;2023-02-16T10:12:41;101275.16;;;8.37;75.63
19210;BME280;9738;51.654;14.238;2023-02-16T10:15:19;101279.19;;;8.43;74.82
19210;BME280;9738;51.654;14.238;2023-02-16T10:17:52;101265.66;;;8.46;74.81
19210;BME280;9738;51.654;14.238;2023-02-16T10:20:33;101281.31;;;8.73;74.88
19210;BME280;9738;51.654;14.238;2023-02-16T10:25:56;101273.22;;;9.08;70.74
19210;BME280;9738;51.654;14.238;2023-02-16T10:28:43;101268.16;;;9.16;70.32
19210;BME280;9738;51.654;14.238;2023-02-16T10:31:39;101260.13;;;8.83;70.71
19210;BME280;9738;51.654;14.238;2023-02-16T10:37:21;101260.38;;;9.13;70.65
19210;BME280;9738;51.654;14.238;2023-02-16T10:40:13;101259.28;;;9.16;69.80
19210;BME280;9738;51.654;14.238;2023-02-16T10:42:52;101251.19;;;9.06;71.33
19210;BME280;9738;51.654;14.238;2023-02-16T10:48:14;101253.59;;;9.32;70.38
19210;BME280;9738;51.654;14.238;2023-02-16T10:50:54;101246.22;;;9.24;69.41
19210;BME280;9738;51.654;14.238;2023-02-16T10:55:58;101251.38;;;9.48;68.86
19210;BME280;9738;51.654;14.238;2023-02-16T10:58:27;101249.16;;;9.53;68.65
19210;BME280;9738;51.654;14.238;2023-02-16T11:01:02;101252.59;;;9.33;68.62
19210;BME280;9738;51.654;14.238;2023-02-16T11:03:44;101252.59;;;9.33;69.15
19210;BME280;9738;51.654;14.238;2023-02-16T11:06:17;101259.63;;;9.34;68.60
19210;BME280;9738;51.654;14.238;2023-02-16T11:08:49;101256.59;;;9.38;69.71
19210;BME280;9738;51.654;14.238;2023-02-16T11:11:16;101255.25;;;9.55;69.73
19210;BME280;9738;51.654;14.238;2023-02-16T11:13:46;101252.28;;;9.69;69.09
19210;BME280;9738;51.654;14.238;2023-02-16T11:16:22;101253.56;;;9.43;68.03
19210;BME280;9738;51.654;14.238;2023-02-16T11:18:58;101253.06;;;9.49;68.89
19210;BME280;9738;51.654;14.238;2023-02-16T11:21:51;101243.75;;;9.87;67.18
19210;BME280;9738;51.654;14.238;2023-02-16T11:24:28;101253.22;;;9.80;66.83
19210;BME280;9738;51.654;14.238;2023-02-16T11:27:17;101240.81;;;9.90;66.90
19210;BME280;9738;51.654;14.238;2023-02-16T11:29:44;101238.34;;;9.66;65.91
19210;BME280;9738;51.654;14.238;2023-02-16T11:32:12;101237.28;;;9.57;66.58
19210;BME280;9738;51.654;14.238;2023-02-16T11:34:50;101231.41;;;9.42;66.45
19210;BME280;9738;51.654;14.238;2023-02-16T11:37:24;101231.47;;;9.63;66.98
19210;BME280;9738;51.654;14.238;2023-02-16T11:42:46;101234.69;;;9.67;67.47
19210;BME280;9738;51.654;14.238;2023-02-16T11:47:56;101216.84;;;9.79;66.23
19210;BME280;9738;51.654;14.238;2023-02-16T11:50:29;101220.09;;;10.14;66.50
19210;BME280;9738;51.654;14.238;2023-02-16T11:53:12;101219.03;;;10.38;65.11
19210;BME280;9738;51.654;14.238;2023-02-16T11:55:44;101221.91;;;10.76;63.92
19210;BME280;9738;51.654;14.238;2023-02-16T11:58:23;101210.03;;;11.00;61.22
19210;BME280;9738;51.654;14.238;2023-02-16T12:04:03;101201.81;;;11.22;61.62
19210;BME280;9738;51.654;14.238;2023-02-16T12:06:39;101201.38;;;11.17;60.82
19210;BME280;9738;51.654;14.238;2023-02-16T12:10:02;101199.66;;;11.06;60.10
19210;BME280;9738;51.654;14.238;2023-02-16T12:12:18;101199.16;;;11.22;62.04
19210;BME280;9738;51.654;14.238;2023-02-16T12:23:41;101194.97;;;10.99;60.97
19210;BME280;9738;51.654;14.238;2023-02-16T12:26:24;101190.63;;;10.98;61.98
19210;BME280;9738;51.654;14.238;2023-02-16T12:31:33;101174.13;;;11.43;60.97
19210;BME280;9738;51.654;14.238;2023-02-16T12:34:27;101167.63;;;11.35;61.16
19210;BME280;9738;51.654;14.238;2023-02-16T12:44:51;101155.53;;;11.51;58.87
19210;BME280;9738;51.654;14.238;2023-02-16T12:47:24;101156.69;;;11.58;59.93
19210;BME280;9738;51.654;14.238;2023-02-16T12:49:57;101162.59;;;11.71;60.42
19210;BME280;9738;51.654;14.238;2023-02-16T12:52:38;101158.38;;;11.78;59.58
19210;BME280;9738;51.654;14.238;2023-02-16T12:55:26;101155.03;;;11.86;58.49
19210;BME280;9738;51.654;14.238;2023-02-16T12:58:02;101151.75;;;11.82;58.76
19210;BME280;9738;51.654;14.238;2023-02-16T13:00:48;101145.84;;;11.88;58.23
19210;BME280;9738;51.654;14.238;2023-02-16T13:05:48;101142.44;;;11.77;58.75
19210;BME280;9738;51.654;14.238;2023-02-16T13:08:42;101137.81;;;11.79;57.51
19210;BME280;9738;51.654;14.238;2023-02-16T13:11:19;101135.28;;;11.58;56.53
19210;BME280;9738;51.654;14.238;2023-02-16T13:13:46;101135.00;;;11.61;56.99
19210;BME280;9738;51.654;14.238;2023-02-16T13:16:41;101130.19;;;11.55;56.82
19210;BME280;9738;51.654;14.238;2023-02-16T13:19:11;101125.84;;;11.54;57.82
19210;BME280;9738;51.654;14.238;2023-02-16T13:26:03;101121.31;;;11.45;57.28
19210;BME280;9738;51.654;14.238;2023-02-16T13:39:59;101106.25;;;11.44;56.23
19210;BME280;9738;51.654;14.238;2023-02-16T13:42:41;101109.09;;;11.42;57.38
19210;BME280;9738;51.654;14.238;2023-02-16T13:45:18;101102.88;;;11.51;57.70
19210;BME280;9738;51.654;14.238;2023-02-16T13:47:45;101113.84;;;11.38;57.36
19210;BME280;9738;51.654;14.238;2023-02-16T13:52:48;101104.00;;;11.29;57.89
19210;BME280;9738;51.654;14.238;2023-02-16T13:55:28;101110.22;;;11.40;58.42
19210;BME280;9738;51.654;14.238;2023-02-16T13:58:02;101108.66;;;11.56;58.65
19210;BME280;9738;51.654;14.238;2023-02-16T14:03:00;101117.22;;;11.70;57.56
19210;BME280;9738;51.654;14.238;2023-02-16T14:05:33;101114.44;;;11.71;57.33
19210;BME280;9738;51.654;14.238;2023-02-16T14:16:06;101106.41;;;11.71;55.27
19210;BME280;9738;51.654;14.238;2023-02-16T14:18:41;101120.38;;;11.84;56.48
19210;BME280;9738;51.654;14.238;2023-02-16T14:21:17;101124.56;;;11.77;56.16
19210;BME280;9738;51.654;14.238;2023-02-16T14:23:54;101123.03;;;11.65;56.08
19210;BME280;9738;51.654;14.238;2023-02-16T14:26:20;101122.59;;;11.60;57.22
19210;BME280;9738;51.654;14.238;2023-02-16T14:29:00;101116.41;;;11.50;56.92
19210;BME280;9738;51.654;14.238;2023-02-16T14:31:32;101117.38;;;11.49;57.63
19210;BME280;9738;51.654;14.238;2023-02-16T14:34:12;101120.91;;;11.40;57.30
19210;BME280;9738;51.654;14.238;2023-02-16T14:39:40;101120.19;;;11.37;58.69
19210;BME280;9738;51.654;14.238;2023-02-16T14:42:11;101117.53;;;11.28;58.46
19210;BME280;9738;51.654;14.238;2023-02-16T14:44:51;101113.56;;;11.22;58.90
19210;BME280;9738;51.654;14.238;2023-02-16T14:47:38;101117.34;;;11.10;59.52
19210;BME280;9738;51.654;14.238;2023-02-16T14:53:21;101107.22;;;10.94;60.95
19210;BME280;9738;51.654;14.238;2023-02-16T14:59:03;101108.91;;;10.95;62.43
19210;BME280;9738;51.654;14.238;2023-02-16T15:01:41;101112.66;;;10.93;61.23
19210;BME280;9738;51.654;14.238;2023-02-16T15:04:09;101108.91;;;10.95;61.59